Wetterdaten: Woche 12.09.16 - 18.09.16 (KW37)
Datum Zeit Temp. A. Feuchte A. Luftdruck Regen Wind Richtung Taupunkt Windchill Windben
12.09.2016 00:00 14,7 C 86 % 1016,6 hPa 0,0 l/m 0,0 km/h (0 Bft) W-SW 12,4 C 14,7 C 0,0 km/h (0 Bft)
12.09.2016 01:00 14,0 C 89 % 1016,5 hPa 0,0 l/m 0,1 km/h (0 Bft) W-SW 12,2 C 14,0 C 0,7 km/h (0 Bft)
12.09.2016 02:00 13,3 C 90 % 1016,3 hPa 0,0 l/m 0,0 km/h (0 Bft) W-SW 11,7 C 13,3 C 0,0 km/h (0 Bft)
12.09.2016 03:00 12,7 C 91 % 1016,1 hPa 0,0 l/m 0,0 km/h (0 Bft) W-SW 11,3 C 12,7 C 0,0 km/h (0 Bft)
12.09.2016 04:00 12,2 C 93 % 1015,9 hPa 0,0 l/m 0,1 km/h (0 Bft) W-SW 11,0 C 12,2 C 0,4 km/h (0 Bft)
12.09.2016 05:00 11,6 C 94 % 1015,9 hPa 0,0 l/m 0,0 km/h (0 Bft) W-SW 10,6 C 11,6 C 0,5 km/h (0 Bft)
12.09.2016 06:00 11,4 C 94 % 1015,9 hPa 0,0 l/m 0,0 km/h (0 Bft) W-SW 10,5 C 11,4 C 0,5 km/h (0 Bft)
12.09.2016 07:00 11,0 C 95 % 1016,3 hPa 0,0 l/m 0,1 km/h (0 Bft) W-SW 10,2 C 11,0 C 0,3 km/h (0 Bft)
12.09.2016 08:00 13,7 C 89 % 1016,4 hPa 0,0 l/m 0,4 km/h (0 Bft) W-SW 12,0 C 13,7 C 1,5 km/h (1 Bft)
12.09.2016 09:00 18,9 C 74 % 1016,4 hPa 0,0 l/m 1,1 km/h (1 Bft) W 14,2 C 18,9 C 2,5 km/h (1 Bft)
12.09.2016 10:00 23,3 C 61 % 1016,4 hPa 0,0 l/m 2,3 km/h (1 Bft) W-NW 15,3 C 23,3 C 5,3 km/h (1 Bft)
12.09.2016 11:00 26,3 C 48 % 1016,0 hPa 0,0 l/m 2,6 km/h (1 Bft) N-NO 14,3 C 26,3 C 5,8 km/h (2 Bft)
12.09.2016 12:00 28,0 C 43 % 1015,8 hPa 0,0 l/m 3,2 km/h (1 Bft) NO 14,2 C 28,0 C 5,8 km/h (2 Bft)
12.09.2016 13:00 29,2 C 38 % 1015,5 hPa 0,0 l/m 3,8 km/h (1 Bft) O-NO 13,3 C 29,2 C 6,9 km/h (2 Bft)
12.09.2016 14:00 30,3 C 34 % 1015,2 hPa 0,0 l/m 3,8 km/h (1 Bft) O-NO 12,5 C 30,3 C 6,9 km/h (2 Bft)
12.09.2016 15:00 30,8 C 31 % 1014,8 hPa 0,0 l/m 4,0 km/h (1 Bft) O-NO 11,7 C 30,8 C 6,8 km/h (2 Bft)
12.09.2016 16:00 30,6 C 32 % 1014,7 hPa 0,0 l/m 3,7 km/h (1 Bft) O-NO 12,2 C 30,6 C 6,6 km/h (2 Bft)
12.09.2016 17:00 28,1 C 42 % 1014,5 hPa 0,0 l/m 1,9 km/h (1 Bft) N-NO 14,0 C 28,1 C 3,6 km/h (1 Bft)
12.09.2016 18:00 27,5 C 45 % 1014,6 hPa 0,0 l/m 0,5 km/h (0 Bft) N-NO 14,7 C 27,5 C 2,2 km/h (1 Bft)
12.09.2016 19:00 25,5 C 55 % 1014,7 hPa 0,0 l/m 0,3 km/h (0 Bft) W-SW 15,6 C 25,5 C 1,7 km/h (1 Bft)
12.09.2016 20:00 22,0 C 67 % 1015,2 hPa 0,0 l/m 0,0 km/h (0 Bft) W-SW 15,6 C 22,0 C 0,4 km/h (0 Bft)
12.09.2016 21:00 19,4 C 78 % 1015,4 hPa 0,0 l/m 0,0 km/h (0 Bft) W-SW 15,4 C 19,4 C 0,0 km/h (0 Bft)
12.09.2016 22:00 17,5 C 85 % 1015,7 hPa 0,0 l/m 0,0 km/h (0 Bft) W-SW 15,0 C 17,5 C 0,0 km/h (0 Bft)
12.09.2016 23:00 16,1 C 89 % 1015,8 hPa 0,0 l/m 0,0 km/h (0 Bft) W-SW 14,3 C 16,1 C 0,0 km/h (0 Bft)
13.09.2016 00:00 15,4 C 91 % 1015,7 hPa 0,0 l/m 0,1 km/h (0 Bft) W-SW 14,0 C 15,4 C 0,8 km/h (0 Bft)
13.09.2016 01:00 14,6 C 92 % 1015,7 hPa 0,0 l/m 0,1 km/h (0 Bft) W-SW 13,4 C 14,6 C 0,9 km/h (0 Bft)
13.09.2016 02:00 14,0 C 93 % 1015,4 hPa 0,0 l/m 0,1 km/h (0 Bft) W-SW 12,9 C 14,0 C 0,5 km/h (0 Bft)
13.09.2016 03:00 13,4 C 94 % 1015,1 hPa 0,0 l/m 0,0 km/h (0 Bft) W-SW 12,4 C 13,4 C 0,4 km/h (0 Bft)
13.09.2016 04:00 12,8 C 95 % 1014,9 hPa 0,0 l/m 0,1 km/h (0 Bft) W-SW 12,0 C 12,8 C 0,4 km/h (0 Bft)
13.09.2016 05:00 12,4 C 95 % 1014,8 hPa 0,0 l/m 0,1 km/h (0 Bft) W-SW 11,7 C 12,4 C 0,8 km/h (0 Bft)
13.09.2016 06:00 12,0 C 95 % 1014,7 hPa 0,0 l/m 0,0 km/h (0 Bft) W-SW 11,3 C 12,0 C 0,1 km/h (0 Bft)
13.09.2016 07:00 11,8 C 96 % 1015,0 hPa 0,0 l/m 0,0 km/h (0 Bft) W-SW 11,2 C 11,8 C 0,3 km/h (0 Bft)
13.09.2016 08:00 14,1 C 93 % 1015,2 hPa 0,0 l/m 0,4 km/h (0 Bft) W-SW 12,9 C 14,1 C 1,5 km/h (1 Bft)
13.09.2016 09:00 18,3 C 80 % 1015,0 hPa 0,0 l/m 1,2 km/h (1 Bft) NW 14,8 C 18,3 C 2,8 km/h (1 Bft)
13.09.2016 10:00 23,3 C 66 % 1014,7 hPa 0,0 l/m 1,7 km/h (1 Bft) NW 16,5 C 23,3 C 3,6 km/h (1 Bft)
13.09.2016 11:00 27,4 C 49 % 1014,2 hPa 0,0 l/m 2,7 km/h (1 Bft) W-NW 15,6 C 27,4 C 6,2 km/h (2 Bft)
13.09.2016 12:00 28,7 C 41 % 1013,8 hPa 0,0 l/m 3,6 km/h (1 Bft) W-NW 14,1 C 28,7 C 7,6 km/h (2 Bft)
13.09.2016 13:00 29,8 C 35 % 1013,1 hPa 0,0 l/m 3,0 km/h (1 Bft) S-SW 12,6 C 29,8 C 7,8 km/h (2 Bft)
13.09.2016 14:00 30,1 C 36 % 1012,4 hPa 0,0 l/m 3,0 km/h (1 Bft) S-SW 13,3 C 30,1 C 7,0 km/h (2 Bft)
13.09.2016 15:00 30,9 C 33 % 1011,8 hPa 0,0 l/m 3,4 km/h (1 Bft) W 12,7 C 30,9 C 8,4 km/h (2 Bft)
13.09.2016 16:00 30,1 C 34 % 1011,3 hPa 0,0 l/m 3,1 km/h (1 Bft) S-SW 12,5 C 30,1 C 7,6 km/h (2 Bft)
13.09.2016 17:00 30,3 C 29 % 1010,8 hPa 0,0 l/m 2,9 km/h (1 Bft) NW 10,2 C 30,3 C 7,2 km/h (2 Bft)
13.09.2016 18:00 29,4 C 31 % 1010,8 hPa 0,0 l/m 3,2 km/h (1 Bft) W-NW 10,4 C 29,4 C 7,9 km/h (2 Bft)
13.09.2016 19:00 26,6 C 37 % 1010,7 hPa 0,0 l/m 1,2 km/h (1 Bft) W-SW 10,6 C 26,6 C 4,0 km/h (1 Bft)
13.09.2016 20:00 23,0 C 49 % 1010,8 hPa 0,0 l/m 0,5 km/h (0 Bft) W-SW 11,7 C 23,0 C 2,3 km/h (1 Bft)
13.09.2016 21:00 19,8 C 62 % 1011,0 hPa 0,0 l/m 0,0 km/h (0 Bft) W-SW 12,3 C 19,8 C 0,0 km/h (0 Bft)
13.09.2016 22:00 17,3 C 72 % 1011,1 hPa 0,0 l/m 0,1 km/h (0 Bft) W-SW 12,2 C 17,3 C 0,7 km/h (0 Bft)
13.09.2016 23:00 15,6 C 79 % 1011,2 hPa 0,0 l/m 0,0 km/h (0 Bft) W-SW 11,9 C 15,6 C 0,1 km/h (0 Bft)
14.09.2016 00:00 14,6 C 83 % 1011,3 hPa 0,0 l/m 0,0 km/h (0 Bft) W-SW 11,7 C 14,6 C 0,2 km/h (0 Bft)
14.09.2016 01:00 13,9 C 86 % 1011,2 hPa 0,0 l/m 0,0 km/h (0 Bft) W-SW 11,6 C 13,9 C 0,0 km/h (0 Bft)
14.09.2016 02:00 13,0 C 89 % 1011,1 hPa 0,0 l/m 0,0 km/h (0 Bft) W-SW 11,1 C 13,0 C 0,0 km/h (0 Bft)
14.09.2016 03:00 12,6 C 90 % 1011,0 hPa 0,0 l/m 0,0 km/h (0 Bft) W-SW 11,1 C 12,6 C 0,4 km/h (0 Bft)
14.09.2016 04:00 12,2 C 91 % 1011,0 hPa 0,0 l/m 0,0 km/h (0 Bft) W-SW 10,7 C 12,2 C 0,3 km/h (0 Bft)
14.09.2016 05:00 11,7 C 92 % 1011,1 hPa 0,0 l/m 0,0 km/h (0 Bft) W-SW 10,4 C 11,7 C 0,1 km/h (0 Bft)
14.09.2016 06:00 11,4 C 93 % 1011,3 hPa 0,0 l/m 0,0 km/h (0 Bft) W-SW 10,3 C 11,4 C 0,6 km/h (0 Bft)
14.09.2016 07:00 11,3 C 94 % 1011,7 hPa 0,0 l/m 0,1 km/h (0 Bft) W-SW 10,3 C 11,3 C 0,7 km/h (0 Bft)
14.09.2016 08:00 13,9 C 87 % 1011,8 hPa 0,0 l/m 0,4 km/h (0 Bft) W-SW 11,8 C 13,9 C 2,0 km/h (1 Bft)
14.09.2016 09:00 18,5 C 75 % 1011,7 hPa 0,0 l/m 1,1 km/h (0 Bft) W-SW 14,0 C 18,5 C 2,8 km/h (1 Bft)
14.09.2016 10:00 23,3 C 62 % 1011,7 hPa 0,0 l/m 1,7 km/h (1 Bft) W-SW 15,5 C 23,3 C 3,6 km/h (1 Bft)
14.09.2016 11:00 26,1 C 52 % 1011,4 hPa 0,0 l/m 2,7 km/h (1 Bft) NW 15,3 C 26,1 C 6,0 km/h (2 Bft)
14.09.2016 12:00 27,5 C 47 % 1011,2 hPa 0,0 l/m 2,9 km/h (1 Bft) NW 15,0 C 27,5 C 6,2 km/h (2 Bft)
14.09.2016 13:00 29,1 C 40 % 1010,8 hPa 0,0 l/m 3,7 km/h (1 Bft) N-NW 14,2 C 29,1 C 9,4 km/h (2 Bft)
14.09.2016 14:00 29,3 C 40 % 1010,4 hPa 0,0 l/m 4,0 km/h (1 Bft) S-SW 14,1 C 29,3 C 10,9 km/h (2 Bft)
14.09.2016 15:00 29,2 C 39 % 1010,1 hPa 0,0 l/m 4,2 km/h (1 Bft) SW 13,9 C 29,2 C 11,4 km/h (2 Bft)
14.09.2016 16:00 29,3 C 40 % 1009,8 hPa 0,0 l/m 3,9 km/h (1 Bft) W 14,3 C 29,3 C 9,8 km/h (2 Bft)
14.09.2016 17:00 28,5 C 40 % 1009,4 hPa 0,0 l/m 3,6 km/h (1 Bft) S 13,3 C 28,5 C 9,4 km/h (2 Bft)
14.09.2016 18:00 27,6 C 37 % 1009,5 hPa 0,0 l/m 3,4 km/h (1 Bft) NW 11,6 C 27,6 C 8,6 km/h (2 Bft)
14.09.2016 19:00 25,4 C 42 % 1009,6 hPa 0,0 l/m 1,5 km/h (1 Bft) W-NW 11,7 C 25,4 C 4,8 km/h (1 Bft)
14.09.2016 20:00 22,2 C 54 % 1009,9 hPa 0,0 l/m 0,4 km/h (0 Bft) S 12,4 C 22,2 C 2,4 km/h (1 Bft)
14.09.2016 21:00 19,4 C 64 % 1009,9 hPa 0,0 l/m 0,2 km/h (0 Bft) W 12,5 C 19,4 C 1,7 km/h (1 Bft)
14.09.2016 22:00 17,4 C 71 % 1009,8 hPa 0,0 l/m 0,0 km/h (0 Bft) W 12,2 C 17,4 C 0,4 km/h (0 Bft)
14.09.2016 23:00 15,8 C 78 % 1009,5 hPa 0,0 l/m 0,0 km/h (0 Bft) W 11,9 C 15,8 C 0,3 km/h (0 Bft)
15.09.2016 00:00 14,9 C 81 % 1009,1 hPa 0,0 l/m 0,0 km/h (0 Bft) W 11,7 C 14,9 C 0,1 km/h (0 Bft)
15.09.2016 01:00 13,9 C 86 % 1008,6 hPa 0,0 l/m 0,1 km/h (0 Bft) W 11,5 C 13,9 C 0,7 km/h (0 Bft)
15.09.2016 02:00 13,2 C 88 % 1008,2 hPa 0,0 l/m 0,2 km/h (0 Bft) W 11,3 C 13,2 C 1,1 km/h (0 Bft)
15.09.2016 03:00 12,7 C 90 % 1007,6 hPa 0,0 l/m 0,1 km/h (0 Bft) W 11,2 C 12,7 C 1,1 km/h (0 Bft)
15.09.2016 04:00 12,3 C 92 % 1007,3 hPa 0,0 l/m 0,1 km/h (0 Bft) W 11,0 C 12,3 C 0,8 km/h (0 Bft)
15.09.2016 05:00 12,1 C 93 % 1007,3 hPa 0,0 l/m 0,2 km/h (0 Bft) W 11,0 C 12,1 C 1,0 km/h (0 Bft)
15.09.2016 06:00 11,6 C 93 % 1007,3 hPa 0,0 l/m 0,0 km/h (0 Bft) W 10,5 C 11,6 C 0,1 km/h (0 Bft)
15.09.2016 07:00 11,1 C 95 % 1007,7 hPa 0,0 l/m 0,0 km/h (0 Bft) W 10,3 C 11,1 C 0,1 km/h (0 Bft)
15.09.2016 08:00 13,5 C 90 % 1008,0 hPa 0,0 l/m 0,5 km/h (0 Bft) W 11,8 C 13,5 C 1,7 km/h (1 Bft)
15.09.2016 09:00 18,7 C 77 % 1008,3 hPa 0,0 l/m 2,3 km/h (1 Bft) W 14,5 C 18,7 C 6,3 km/h (2 Bft)
15.09.2016 10:00 21,4 C 68 % 1008,7 hPa 0,0 l/m 5,2 km/h (1 Bft) O-NO 15,1 C 21,3 C 14,9 km/h (3 Bft)
15.09.2016 11:00 21,6 C 65 % 1009,5 hPa 0,0 l/m 5,1 km/h (1 Bft) NO 14,8 C 21,6 C 13,0 km/h (3 Bft)
15.09.2016 12:00 21,0 C 67 % 1010,0 hPa 0,0 l/m 5,2 km/h (1 Bft) O 14,8 C 21,0 C 12,1 km/h (2 Bft)
15.09.2016 13:00 19,9 C 71 % 1010,3 hPa 0,0 l/m 4,1 km/h (1 Bft) O-NO 14,4 C 19,9 C 10,5 km/h (2 Bft)
15.09.2016 14:00 19,5 C 75 % 1010,5 hPa 0,0 l/m 3,1 km/h (1 Bft) O-NO 15,0 C 19,5 C 8,0 km/h (2 Bft)
15.09.2016 15:00 20,0 C 74 % 1010,6 hPa 0,0 l/m 3,5 km/h (1 Bft) O-NO 15,1 C 20,0 C 9,5 km/h (2 Bft)
15.09.2016 16:00 20,0 C 69 % 1010,9 hPa 0,0 l/m 3,3 km/h (1 Bft) O-NO 14,1 C 20,0 C 8,3 km/h (2 Bft)
15.09.2016 17:00 20,2 C 65 % 1011,2 hPa 0,0 l/m 3,4 km/h (1 Bft) O-NO 13,5 C 20,2 C 7,7 km/h (2 Bft)
15.09.2016 18:00 19,2 C 67 % 1011,4 hPa 0,0 l/m 2,1 km/h (1 Bft) O 13,0 C 19,2 C 5,0 km/h (1 Bft)
15.09.2016 19:00 17,4 C 74 % 1011,8 hPa 0,0 l/m 0,4 km/h (0 Bft) O 12,7 C 17,4 C 1,9 km/h (1 Bft)
15.09.2016 20:00 16,8 C 77 % 1012,6 hPa 0,0 l/m 1,1 km/h (0 Bft) O 12,7 C 16,8 C 3,7 km/h (1 Bft)
15.09.2016 21:00 15,9 C 81 % 1013,0 hPa 0,0 l/m 1,0 km/h (0 Bft) O 12,7 C 15,9 C 4,5 km/h (1 Bft)
15.09.2016 22:00 15,4 C 84 % 1013,6 hPa 0,0 l/m 1,1 km/h (1 Bft) O-NO 12,7 C 15,4 C 3,9 km/h (1 Bft)
15.09.2016 23:00 14,8 C 86 % 1013,7 hPa 0,0 l/m 0,3 km/h (0 Bft) O 12,5 C 14,8 C 1,6 km/h (1 Bft)
16.09.2016 00:00 13,8 C 88 % 1013,8 hPa 0,0 l/m 0,7 km/h (0 Bft) O-SO 12,0 C 13,8 C 1,2 km/h (1 Bft)
16.09.2016 01:00 12,8 C 92 % 1013,9 hPa 0,0 l/m 0,1 km/h (0 Bft) O-SO 11,5 C 12,8 C 0,5 km/h (0 Bft)
16.09.2016 02:00 13,6 C 91 % 1014,0 hPa 0,0 l/m 0,3 km/h (0 Bft) O-SO 12,1 C 13,6 C 1,9 km/h (1 Bft)
16.09.2016 03:00 14,1 C 90 % 1013,8 hPa 0,0 l/m 0,0 km/h (0 Bft) O-SO 12,4 C 14,1 C 0,7 km/h (0 Bft)
16.09.2016 04:00 13,8 C 90 % 1013,3 hPa 0,0 l/m 0,3 km/h (0 Bft) O-SO 12,1 C 13,8 C 1,5 km/h (1 Bft)
16.09.2016 05:00 13,7 C 88 % 1013,0 hPa 0,0 l/m 0,2 km/h (0 Bft) N 11,8 C 13,7 C 1,3 km/h (1 Bft)
16.09.2016 06:00 13,4 C 90 % 1013,0 hPa 0,0 l/m 0,0 km/h (0 Bft) N 11,7 C 13,4 C 0,3 km/h (0 Bft)
16.09.2016 07:00 13,2 C 92 % 1013,7 hPa 0,0 l/m 0,1 km/h (0 Bft) N 11,8 C 13,2 C 0,9 km/h (0 Bft)
16.09.2016 08:00 13,3 C 94 % 1014,3 hPa 0,3 l/m 0,5 km/h (0 Bft) N-NO 12,4 C 13,3 C 1,9 km/h (1 Bft)
16.09.2016 09:00 13,8 C 92 % 1014,3 hPa 0,3 l/m 1,6 km/h (1 Bft) O-NO 12,5 C 13,8 C 4,5 km/h (1 Bft)
16.09.2016 10:00 14,3 C 89 % 1014,5 hPa 0,0 l/m 3,8 km/h (1 Bft) O-NO 12,4 C 14,3 C 11,2 km/h (2 Bft)
16.09.2016 11:00 13,5 C 92 % 1014,8 hPa 1,3 l/m 3,3 km/h (1 Bft) O-NO 12,2 C 13,5 C 7,5 km/h (2 Bft)
16.09.2016 12:00 13,5 C 94 % 1014,8 hPa 1,3 l/m 1,0 km/h (0 Bft) O-NO 12,5 C 13,5 C 2,6 km/h (1 Bft)
16.09.2016 13:00 14,2 C 93 % 1014,8 hPa 0,3 l/m 1,6 km/h (1 Bft) O-NO 13,1 C 14,2 C 4,0 km/h (1 Bft)
16.09.2016 14:00 15,0 C 91 % 1014,4 hPa 0,0 l/m 2,1 km/h (1 Bft) O 13,5 C 15,0 C 4,4 km/h (1 Bft)
16.09.2016 15:00 16,0 C 84 % 1013,9 hPa 0,0 l/m 2,3 km/h (1 Bft) O-NO 13,3 C 16,0 C 5,7 km/h (2 Bft)
16.09.2016 16:00 16,7 C 75 % 1013,5 hPa 0,0 l/m 1,1 km/h (1 Bft) O-SO 12,2 C 16,7 C 3,2 km/h (1 Bft)
16.09.2016 17:00 16,5 C 76 % 1013,0 hPa 0,0 l/m 1,7 km/h (1 Bft) O-SO 12,2 C 16,5 C 3,7 km/h (1 Bft)
16.09.2016 18:00 15,9 C 81 % 1012,9 hPa 0,0 l/m 1,1 km/h (1 Bft) O-NO 12,6 C 15,9 C 2,4 km/h (1 Bft)
16.09.2016 19:00 15,2 C 82 % 1012,8 hPa 0,0 l/m 0,3 km/h (0 Bft) O-NO 12,2 C 15,2 C 0,8 km/h (0 Bft)
16.09.2016 20:00 13,0 C 91 % 1013,5 hPa 0,0 l/m 0,1 km/h (0 Bft) O-NO 11,4 C 13,0 C 0,9 km/h (0 Bft)
16.09.2016 21:00 12,4 C 93 % 1014,0 hPa 0,0 l/m 0,1 km/h (0 Bft) O-NO 11,3 C 12,4 C 1,2 km/h (1 Bft)
16.09.2016 22:00 12,0 C 93 % 1014,0 hPa 0,0 l/m 0,1 km/h (0 Bft) O-NO 10,9 C 12,0 C 1,1 km/h (0 Bft)
16.09.2016 23:00 11,1 C 95 % 1014,2 hPa 0,0 l/m 0,3 km/h (0 Bft) O-NO 10,2 C 11,1 C 0,9 km/h (0 Bft)
17.09.2016 00:00 10,8 C 96 % 1014,3 hPa 0,0 l/m 0,1 km/h (0 Bft) O 10,2 C 10,8 C 0,8 km/h (0 Bft)
17.09.2016 01:00 10,8 C 96 % 1014,0 hPa 0,0 l/m 0,1 km/h (0 Bft) O 10,3 C 10,8 C 1,1 km/h (0 Bft)
17.09.2016 02:00 11,2 C 96 % 1013,8 hPa 0,0 l/m 0,3 km/h (0 Bft) O 10,6 C 11,2 C 2,1 km/h (1 Bft)
17.09.2016 03:00 11,7 C 93 % 1013,7 hPa 0,0 l/m 0,7 km/h (0 Bft) O-NO 10,5 C 11,7 C 2,9 km/h (1 Bft)
17.09.2016 04:00 12,0 C 90 % 1013,4 hPa 0,0 l/m 2,5 km/h (1 Bft) O 10,4 C 12,0 C 7,0 km/h (2 Bft)
17.09.2016 05:00 12,1 C 88 % 1013,6 hPa 0,0 l/m 1,1 km/h (1 Bft) S 10,3 C 12,1 C 3,9 km/h (1 Bft)
17.09.2016 06:00 12,0 C 88 % 1013,6 hPa 0,0 l/m 0,8 km/h (0 Bft) O 10,0 C 12,0 C 3,2 km/h (1 Bft)
17.09.2016 07:00 11,9 C 89 % 1013,8 hPa 0,0 l/m 0,7 km/h (0 Bft) O 10,1 C 11,9 C 2,9 km/h (1 Bft)
17.09.2016 08:00 11,9 C 90 % 1014,2 hPa 0,0 l/m 0,4 km/h (0 Bft) O 10,3 C 11,9 C 2,0 km/h (1 Bft)
17.09.2016 09:00 13,3 C 85 % 1014,3 hPa 0,0 l/m 2,3 km/h (1 Bft) O-NO 10,8 C 13,3 C 5,5 km/h (2 Bft)
17.09.2016 10:00 14,4 C 80 % 1014,6 hPa 0,0 l/m 2,5 km/h (1 Bft) O-NO 11,1 C 14,4 C 6,1 km/h (2 Bft)
17.09.2016 11:00 15,5 C 75 % 1014,5 hPa 0,0 l/m 3,2 km/h (1 Bft) O-NO 11,0 C 15,5 C 7,0 km/h (2 Bft)
17.09.2016 12:00 17,0 C 69 % 1014,2 hPa 0,0 l/m 3,8 km/h (1 Bft) NO 11,3 C 16,9 C 8,9 km/h (2 Bft)
17.09.2016 13:00 19,1 C 60 % 1013,6 hPa 0,0 l/m 4,8 km/h (1 Bft) NO 11,1 C 19,0 C 12,0 km/h (2 Bft)
17.09.2016 14:00 18,5 C 61 % 1013,4 hPa 0,0 l/m 5,0 km/h (1 Bft) O 10,7 C 18,4 C 12,1 km/h (2 Bft)
17.09.2016 15:00 17,7 C 62 % 1013,7 hPa 0,0 l/m 2,9 km/h (1 Bft) O-NO 10,2 C 17,7 C 7,6 km/h (2 Bft)
17.09.2016 16:00 17,0 C 65 % 1013,8 hPa 0,0 l/m 2,1 km/h (1 Bft) NO 10,4 C 17,0 C 6,7 km/h (2 Bft)
17.09.2016 17:00 17,1 C 64 % 1013,9 hPa 0,0 l/m 3,1 km/h (1 Bft) O 10,3 C 17,1 C 8,0 km/h (2 Bft)
17.09.2016 18:00 17,0 C 67 % 1013,9 hPa 0,0 l/m 3,6 km/h (1 Bft) O 10,7 C 17,0 C 7,7 km/h (2 Bft)
17.09.2016 19:00 15,2 C 76 % 1014,0 hPa 0,0 l/m 2,6 km/h (1 Bft) O 11,0 C 15,2 C 7,9 km/h (2 Bft)
17.09.2016 20:00 14,4 C 81 % 1014,1 hPa 0,0 l/m 3,0 km/h (1 Bft) O-SO 11,2 C 14,4 C 8,3 km/h (2 Bft)
17.09.2016 21:00 14,2 C 83 % 1014,6 hPa 0,0 l/m 2,1 km/h (1 Bft) O-NO 11,4 C 14,2 C 6,0 km/h (2 Bft)
17.09.2016 22:00 13,5 C 90 % 1014,5 hPa 0,8 l/m 1,7 km/h (1 Bft) O 11,8 C 13,5 C 5,2 km/h (1 Bft)
17.09.2016 23:00 12,5 C 94 % 1014,0 hPa 0,8 l/m 2,2 km/h (1 Bft) O 11,6 C 12,5 C 5,0 km/h (1 Bft)
18.09.2016 00:00 12,4 C 95 % 1013,6 hPa 1,0 l/m 2,4 km/h (1 Bft) O-NO 11,5 C 12,4 C 5,8 km/h (2 Bft)
18.09.2016 01:00 12,3 C 95 % 1013,0 hPa 0,5 l/m 2,9 km/h (1 Bft) O 11,5 C 12,3 C 6,7 km/h (2 Bft)
18.09.2016 02:00 12,2 C 95 % 1012,4 hPa 0,3 l/m 3,5 km/h (1 Bft) O 11,4 C 12,2 C 9,2 km/h (2 Bft)
18.09.2016 03:00 12,1 C 95 % 1011,9 hPa 1,3 l/m 3,9 km/h (1 Bft) O-NO 11,4 C 12,1 C 9,3 km/h (2 Bft)
18.09.2016 04:00 12,0 C 95 % 1011,4 hPa 2,5 l/m 3,1 km/h (1 Bft) O 11,3 C 12,0 C 6,7 km/h (2 Bft)
18.09.2016 05:00 11,8 C 96 % 1010,9 hPa 4,1 l/m 2,9 km/h (1 Bft) O-NO 11,2 C 11,8 C 6,5 km/h (2 Bft)
18.09.2016 06:00 11,8 C 96 % 1010,7 hPa 3,3 l/m 2,1 km/h (1 Bft) O-NO 11,1 C 11,8 C 4,5 km/h (1 Bft)
18.09.2016 07:00 11,6 C 96 % 1010,6 hPa 3,6 l/m 2,7 km/h (1 Bft) O-NO 11,0 C 11,6 C 6,3 km/h (2 Bft)
18.09.2016 08:00 11,7 C 96 % 1010,5 hPa 0,5 l/m 1,9 km/h (1 Bft) O-NO 11,1 C 11,7 C 5,7 km/h (2 Bft)
18.09.2016 09:00 11,8 C 96 % 1010,7 hPa 0,5 l/m 2,5 km/h (1 Bft) O 11,2 C 11,8 C 5,7 km/h (2 Bft)
18.09.2016 10:00 12,2 C 96 % 1011,0 hPa 0,8 l/m 2,4 km/h (1 Bft) O 11,5 C 12,2 C 6,3 km/h (2 Bft)
18.09.2016 11:00 12,4 C 96 % 1011,2 hPa 1,3 l/m 2,8 km/h (1 Bft) O 11,8 C 12,4 C 6,2 km/h (2 Bft)
18.09.2016 12:00 12,6 C 96 % 1011,2 hPa 0,8 l/m 2,2 km/h (1 Bft) O 11,9 C 12,6 C 4,9 km/h (1 Bft)
18.09.2016 13:00 12,9 C 96 % 1011,3 hPa 0,8 l/m 1,9 km/h (1 Bft) O 12,2 C 12,9 C 4,7 km/h (1 Bft)
18.09.2016 14:00 13,0 C 96 % 1011,4 hPa 0,5 l/m 1,6 km/h (1 Bft) O-NO 12,4 C 13,0 C 4,4 km/h (1 Bft)
18.09.2016 15:00 13,2 C 95 % 1011,5 hPa 0,5 l/m 1,7 km/h (1 Bft) O 12,5 C 13,2 C 4,9 km/h (1 Bft)
18.09.2016 16:00 13,1 C 96 % 1011,6 hPa 0,3 l/m 0,9 km/h (0 Bft) O 12,5 C 13,1 C 2,8 km/h (1 Bft)
18.09.2016 17:00 13,1 C 96 % 1011,8 hPa 0,8 l/m 1,2 km/h (1 Bft) O 12,6 C 13,1 C 3,3 km/h (1 Bft)
18.09.2016 18:00 13,1 C 97 % 1011,9 hPa 0,5 l/m 0,6 km/h (0 Bft) O 12,6 C 13,1 C 2,1 km/h (1 Bft)
18.09.2016 19:00 13,1 C 97 % 1012,4 hPa 1,5 l/m 0,3 km/h (0 Bft) O 12,6 C 13,1 C 1,7 km/h (1 Bft)
18.09.2016 20:00 13,0 C 97 % 1012,9 hPa 0,0 l/m 0,6 km/h (0 Bft) O-SO 12,6 C 13,0 C 2,5 km/h (1 Bft)
18.09.2016 21:00 12,9 C 97 % 1013,3 hPa 0,3 l/m 0,4 km/h (0 Bft) O-SO 12,4 C 12,9 C 1,9 km/h (1 Bft)
18.09.2016 22:00 12,9 C 97 % 1013,6 hPa 0,0 l/m 0,4 km/h (0 Bft) N 12,4 C 12,9 C 2,1 km/h (1 Bft)
18.09.2016 23:00 12,9 C 97 % 1014,0 hPa 0,0 l/m 0,5 km/h (0 Bft) N-NO 12,4 C 12,9 C 2,8 km/h (1 Bft)
Min-Datum _ 17.09.16 13.09.16 15.09.16 - 18.09.16 - 13.09.16 17.09.16 18.09.16
_ Min-Zeit 01:25 17:30 06:10 - 23:00 - 17:45 01:25 22:55
Minimum _ 10,7 C 27 % 1007,2 hPa - 0,0 km/h (0 Bft) - 9,3 C 10,7 C 0,0 km/h (0 Bft)
Max-Datum _ 13.09.16 18.09.16 12.09.16 18.09.16 12.09.16 - 13.09.16 13.09.16 15.09.16
_ Max-Zeit 15:40 23:00 00:00 05:00 15:13 - 10:50 15:40 10:40
Maximum _ 31,4 C 97 % 1016,7 hPa 4,1 l/m 9,7 km/h
O-NO (2 Bft)
- 16,9 C 31,4 C 19,3 km/h
O-NO (3 Bft)
Durchschnitt _ 16,9 C 78 % 1012,7 hPa #30,2 l/m 1,5 km/h (1 Bft) O-NO 12,3 C 16,9 C 4,0 km/h (1 Bft)